Time;durP1;ratioP1;P1;durP2;ratioP2;P2;SDS_P1;SDS_P2;PMS_P1;PMS_P2;Temp;Humidity;BMP_temperature;BMP_pressure;BME280_temperature;BME280_humidity;BME280_pressure;Samples;Min_cycle;Max_cycle;Signal;HPM_P1;HPM_P2
2022/08/24 00:00:30;;;;;;;2.30;1.60;;;30.30;35.00;;;;;;5113102;28;20536;-78
2022/08/24 00:02:59;;;;;;;1.93;1.70;;;30.40;35.00;;;;;;5112784;28;20444;-78
2022/08/24 00:05:27;;;;;;;5.80;1.87;;;30.30;35.00;;;;;;5112877;28;20464;-78
2022/08/24 00:07:55;;;;;;;1.70;1.60;;;30.20;34.80;;;;;;5113219;28;20440;-78
2022/08/24 00:10:23;;;;;;;2.00;1.60;;;30.20;35.40;;;;;;5112992;28;20448;-78
2022/08/24 00:12:51;;;;;;;1.67;1.60;;;29.90;35.40;;;;;;5108042;28;20531;-78
2022/08/24 00:15:19;;;;;;;2.23;1.40;;;30.00;35.20;;;;;;5109258;28;20456;-78
2022/08/24 00:17:47;;;;;;;2.20;2.00;;;29.80;35.50;;;;;;5112526;28;20471;-78
2022/08/24 00:20:17;;;;;;;1.67;1.57;;;30.00;35.50;;;;;;5112740;28;20455;-78
2022/08/24 00:22:45;;;;;;;2.10;1.87;;;30.00;35.50;;;;;;5112604;28;20512;-79
2022/08/24 00:25:13;;;;;;;1.50;1.40;;;30.00;35.20;;;;;;5112956;28;20441;-78
2022/08/24 00:27:41;;;;;;;1.87;1.77;;;30.00;35.30;;;;;;5112900;28;20436;-78
2022/08/24 00:30:12;;;;;;;1.80;1.63;;;30.00;35.20;;;;;;5111341;28;20464;-78
2022/08/24 00:32:41;;;;;;;2.27;2.07;;;29.90;35.70;;;;;;5112747;28;20440;-78
2022/08/24 00:35:10;;;;;;;3.27;1.83;;;30.00;35.50;;;;;;5112467;28;20464;-78
2022/08/24 00:37:40;;;;;;;1.93;1.60;;;30.00;35.80;;;;;;5112593;28;20467;-78
2022/08/24 00:40:10;;;;;;;1.80;1.70;;;29.90;35.50;;;;;;5112665;28;20440;-78
2022/08/24 00:42:38;;;;;;;4.77;1.60;;;29.90;35.20;;;;;;5112448;28;20508;-78
2022/08/24 00:45:08;;;;;;;1.57;1.47;;;29.90;35.50;;;;;;5110202;28;20464;-78
2022/08/24 00:47:42;;;;;;;2.10;1.73;;;29.90;35.50;;;;;;5111254;28;20440;-78
2022/08/24 00:50:18;;;;;;;1.80;1.70;;;29.90;35.90;;;;;;5112256;28;20413;-78
2022/08/24 00:52:49;;;;;;;1.90;1.80;;;29.80;35.90;;;;;;5112077;28;20410;-78
2022/08/24 00:55:19;;;;;;;1.87;1.63;;;29.90;35.70;;;;;;5111618;28;20459;-78
2022/08/24 00:57:48;;;;;;;2.10;2.00;;;30.00;35.80;;;;;;5112200;28;20471;-78
2022/08/24 01:00:18;;;;;;;3.50;1.80;;;29.90;35.60;;;;;;5112227;28;20448;-78
2022/08/24 01:02:49;;;;;;;1.77;1.67;;;29.80;35.70;;;;;;5106105;28;20448;-78
2022/08/24 01:05:18;;;;;;;3.80;2.40;;;29.90;35.70;;;;;;5111753;28;20460;-78
2022/08/24 01:07:49;;;;;;;4.10;1.80;;;29.80;35.70;;;;;;5107404;28;20468;-78
2022/08/24 01:10:19;;;;;;;1.90;1.80;;;29.90;36.00;;;;;;5111740;28;20471;-78
2022/08/24 01:12:48;;;;;;;2.37;1.73;;;29.70;36.20;;;;;;5111898;28;20885;-77
2022/08/24 01:15:28;;;;;;;1.63;1.53;;;29.50;35.90;;;;;;5111815;28;20884;-78
2022/08/24 01:20:42;;;;;;;2.20;1.90;;;29.40;36.50;;;;;;5111758;28;20440;-77
2022/08/24 01:23:15;;;;;;;1.87;1.77;;;29.40;36.60;;;;;;5112496;28;20443;-77
2022/08/24 01:25:45;;;;;;;2.63;2.07;;;29.30;37.00;;;;;;5112068;28;20506;-77
2022/08/24 01:28:15;;;;;;;1.70;1.60;;;29.20;36.70;;;;;;5111933;28;20450;-77
2022/08/24 01:30:48;;;;;;;1.90;1.80;;;29.10;36.80;;;;;;5111922;28;20466;-77
2022/08/24 01:33:24;;;;;;;1.80;1.70;;;29.00;37.30;;;;;;5112055;28;20447;-77
2022/08/24 01:35:55;;;;;;;2.30;1.70;;;28.90;37.30;;;;;;5111990;28;20534;-77
2022/08/24 01:38:22;;;;;;;9.13;1.80;;;28.90;37.50;;;;;;5110044;28;20468;-77
2022/08/24 01:40:56;;;;;;;2.20;2.03;;;29.10;37.20;;;;;;5111920;28;20444;-77
2022/08/24 01:43:24;;;;;;;8.20;1.93;;;29.10;37.30;;;;;;5111851;28;20426;-78
2022/08/24 01:45:52;;;;;;;1.90;1.80;;;29.20;37.20;;;;;;5111508;28;20845;-77
2022/08/24 01:48:20;;;;;;;2.13;1.80;;;29.20;37.60;;;;;;5111918;28;20823;-78
2022/08/24 01:50:51;;;;;;;1.93;1.83;;;29.10;37.20;;;;;;5111855;28;20531;-78
2022/08/24 01:53:19;;;;;;;4.20;2.83;;;29.20;37.20;;;;;;5110045;28;20440;-78
2022/08/24 01:55:47;;;;;;;4.70;4.30;;;29.10;37.40;;;;;;5111988;28;20460;-78
2022/08/24 01:58:17;;;;;;;2.77;2.50;;;29.10;37.20;;;;;;5112126;28;20474;-78
2022/08/24 02:00:44;;;;;;;2.40;2.30;;;29.00;37.30;;;;;;5111752;28;20429;-78
2022/08/24 02:03:12;;;;;;;2.73;2.30;;;29.10;37.90;;;;;;5111590;28;20463;-78
2022/08/24 02:05:40;;;;;;;4.47;2.50;;;29.30;37.00;;;;;;5111739;28;20486;-78
2022/08/24 02:08:08;;;;;;;2.77;2.30;;;29.40;37.00;;;;;;5115799;28;20518;-78
2022/08/24 02:10:36;;;;;;;1.97;1.87;;;29.50;37.00;;;;;;5106880;28;20449;-77
2022/08/24 02:13:04;;;;;;;3.33;2.13;;;29.40;36.70;;;;;;5115162;28;20448;-78
2022/08/24 02:15:38;;;;;;;2.57;2.37;;;29.40;36.80;;;;;;5115063;28;21043;-77
2022/08/24 02:18:07;;;;;;;4.10;2.13;;;29.20;36.80;;;;;;5115112;28;20463;-77
2022/08/24 02:20:42;;;;;;;6.43;2.10;;;29.10;37.30;;;;;;5115700;28;20442;-78
2022/08/24 02:23:10;;;;;;;2.40;2.10;;;29.20;37.10;;;;;;5115086;28;20450;-78
2022/08/24 02:25:38;;;;;;;3.23;2.00;;;29.40;37.70;;;;;;5115092;28;20542;-78
2022/08/24 02:28:06;;;;;;;2.30;2.20;;;29.10;37.40;;;;;;5108169;28;20535;-77
2022/08/24 02:30:35;;;;;;;2.27;2.07;;;29.10;37.50;;;;;;5113685;28;20535;-77
2022/08/24 02:33:03;;;;;;;2.60;2.40;;;28.90;37.70;;;;;;5114921;28;20454;-78
2022/08/24 02:35:31;;;;;;;2.53;2.30;;;28.90;38.10;;;;;;5114922;28;20483;-77
2022/08/24 02:37:59;;;;;;;2.33;2.13;;;29.00;37.80;;;;;;5114981;28;20483;-78
2022/08/24 02:40:28;;;;;;;2.23;1.73;;;29.00;37.90;;;;;;5115133;28;20447;-78
2022/08/24 02:42:56;;;;;;;3.03;2.00;;;29.10;37.60;;;;;;5114960;28;20444;-78
2022/08/24 02:45:24;;;;;;;2.30;2.10;;;29.10;37.70;;;;;;5105093;28;20522;-78
2022/08/24 02:47:53;;;;;;;1.87;1.77;;;29.20;37.60;;;;;;5114782;28;20438;-78
2022/08/24 02:50:21;;;;;;;3.70;1.83;;;29.10;37.60;;;;;;5114723;28;20538;-78
2022/08/24 02:52:49;;;;;;;2.80;2.10;;;29.00;37.90;;;;;;5115082;28;20423;-78
2022/08/24 02:55:17;;;;;;;3.63;2.30;;;29.00;37.80;;;;;;5115026;28;20964;-78
2022/08/24 02:57:47;;;;;;;2.47;2.10;;;28.80;38.20;;;;;;5115252;27;20469;-78
2022/08/24 03:00:16;;;;;;;2.13;1.87;;;28.60;38.40;;;;;;5109541;28;20479;-78
2022/08/24 03:02:44;;;;;;;1.87;1.77;;;28.50;38.40;;;;;;5106785;28;20410;-78
2022/08/24 03:05:14;;;;;;;2.10;2.00;;;28.50;38.80;;;;;;5115440;28;20495;-79
2022/08/24 03:07:42;;;;;;;2.13;2.03;;;28.30;38.90;;;;;;5115606;28;20534;-79
2022/08/24 03:10:10;;;;;;;2.73;2.53;;;28.10;39.00;;;;;;5115578;28;20520;-78
2022/08/24 03:12:38;;;;;;;2.20;2.10;;;28.00;39.20;;;;;;5115236;28;20527;-79
2022/08/24 03:15:08;;;;;;;2.13;2.00;;;27.80;40.20;;;;;;5115562;28;20463;-79
2022/08/24 03:17:36;;;;;;;2.50;2.00;;;27.80;40.00;;;;;;5113897;28;20448;-79
2022/08/24 03:20:08;;;;;;;2.90;2.43;;;27.80;39.80;;;;;;5115327;28;20534;-79
2022/08/24 03:22:38;;;;;;;1.93;1.83;;;27.90;39.90;;;;;;5115772;28;20419;-79
2022/08/24 03:25:06;;;;;;;3.77;2.97;;;27.90;39.80;;;;;;5114854;28;20464;-79
2022/08/24 03:27:34;;;;;;;2.50;2.30;;;27.70;39.80;;;;;;5113847;28;20447;-78
2022/08/24 03:30:02;;;;;;;5.80;2.40;;;27.70;40.90;;;;;;5113649;28;20454;-78
2022/08/24 03:32:31;;;;;;;2.27;2.17;;;27.60;40.60;;;;;;5113661;28;20515;-78
2022/08/24 03:34:58;;;;;;;2.70;2.50;;;27.70;40.30;;;;;;5110041;28;20486;-78
2022/08/24 03:37:26;;;;;;;3.70;3.37;;;27.80;40.20;;;;;;5111247;28;20446;-77
2022/08/24 03:39:55;;;;;;;2.97;2.43;;;27.90;40.20;;;;;;5113216;28;20470;-78
2022/08/24 03:42:24;;;;;;;3.33;3.00;;;27.80;40.00;;;;;;5113857;28;20991;-78
2022/08/24 03:44:51;;;;;;;2.80;2.53;;;27.90;40.20;;;;;;5117009;28;20525;-77
2022/08/24 03:47:21;;;;;;;2.33;2.23;;;27.80;40.40;;;;;;5115634;28;20428;-77
2022/08/24 03:49:49;;;;;;;4.83;2.57;;;27.80;40.30;;;;;;5113796;28;20425;-77
2022/08/24 03:52:17;;;;;;;6.40;2.43;;;27.90;40.30;;;;;;5112365;28;20459;-78
2022/08/24 03:54:47;;;;;;;3.10;2.50;;;27.90;40.00;;;;;;5105432;28;20434;-78
2022/08/24 03:57:17;;;;;;;2.57;2.37;;;27.70;40.30;;;;;;5113052;28;20458;-78
2022/08/24 03:59:45;;;;;;;4.50;2.80;;;27.80;40.60;;;;;;5112979;28;20442;-77
2022/08/24 04:02:14;;;;;;;3.17;2.70;;;27.60;40.60;;;;;;5113187;28;20964;-77
2022/08/24 04:04:42;;;;;;;3.80;2.70;;;27.30;40.70;;;;;;5113208;28;21064;-77
2022/08/24 04:07:11;;;;;;;5.70;2.63;;;27.30;40.90;;;;;;5112910;28;20440;-77
2022/08/24 04:09:39;;;;;;;2.33;2.20;;;27.20;41.20;;;;;;5111168;28;20497;-77
2022/08/24 04:12:07;;;;;;;2.77;2.50;;;27.20;41.10;;;;;;5107487;28;20435;-77
2022/08/24 04:14:37;;;;;;;3.73;2.90;;;27.20;41.00;;;;;;5112935;28;20441;-77
2022/08/24 04:17:05;;;;;;;2.80;2.60;;;27.20;41.60;;;;;;5112763;28;20510;-77
2022/08/24 04:19:33;;;;;;;7.17;2.73;;;27.10;41.60;;;;;;5112718;28;20478;-77
2022/08/24 04:22:01;;;;;;;3.87;2.40;;;26.90;41.60;;;;;;5112836;28;20531;-78
2022/08/24 04:24:30;;;;;;;4.53;2.50;;;26.70;41.80;;;;;;5112877;28;20533;-78
2022/08/24 04:26:58;;;;;;;2.77;2.47;;;26.90;42.20;;;;;;5108011;28;20456;-78
2022/08/24 04:29:26;;;;;;;2.77;2.57;;;27.10;41.90;;;;;;5113344;28;20542;-78
2022/08/24 04:31:57;;;;;;;3.97;2.30;;;27.10;41.80;;;;;;5113268;28;20449;-78
2022/08/24 04:34:25;;;;;;;3.93;2.70;;;27.10;42.00;;;;;;5113265;28;20442;-78
2022/08/24 04:36:53;;;;;;;3.90;2.73;;;27.00;41.80;;;;;;5113517;28;20516;-78
2022/08/24 04:39:21;;;;;;;3.83;2.63;;;27.00;42.00;;;;;;5113874;28;20469;-78
2022/08/24 04:41:50;;;;;;;3.10;2.80;;;27.20;42.40;;;;;;5112064;28;20456;-78
2022/08/24 04:44:18;;;;;;;4.70;2.47;;;27.30;41.70;;;;;;5113119;28;20466;-78
2022/08/24 04:46:46;;;;;;;2.70;2.50;;;27.30;41.50;;;;;;5113325;28;20422;-78
2022/08/24 04:49:16;;;;;;;4.13;2.57;;;27.20;41.60;;;;;;5112263;28;20440;-77
2022/08/24 04:51:44;;;;;;;2.87;2.50;;;27.20;41.50;;;;;;5112197;28;20425;-78
2022/08/24 04:54:11;;;;;;;4.73;2.87;;;27.30;41.70;;;;;;5112552;28;20430;-77
2022/08/24 04:56:39;;;;;;;6.70;2.97;;;27.30;41.60;;;;;;5112286;28;20432;-78
2022/08/24 04:59:07;;;;;;;4.70;2.70;;;27.40;41.60;;;;;;5105807;28;20444;-78
2022/08/24 05:01:35;;;;;;;3.33;2.80;;;27.30;41.40;;;;;;5112313;28;20510;-78
2022/08/24 05:04:04;;;;;;;3.50;2.90;;;27.20;41.80;;;;;;5112056;28;20470;-78
2022/08/24 05:06:33;;;;;;;5.87;3.17;;;27.30;42.00;;;;;;5111968;28;20435;-78
2022/08/24 05:09:01;;;;;;;4.90;2.63;;;27.20;41.80;;;;;;5111999;28;20954;-78
2022/08/24 05:11:29;;;;;;;4.47;2.67;;;27.10;42.10;;;;;;5112160;28;20772;-78
2022/08/24 05:13:58;;;;;;;3.60;2.83;;;27.10;42.30;;;;;;5111878;28;20501;-78
2022/08/24 05:16:26;;;;;;;3.70;2.60;;;27.30;42.30;;;;;;5104193;28;20459;-78
2022/08/24 05:18:55;;;;;;;2.90;2.63;;;27.20;42.10;;;;;;5111915;28;20425;-78
2022/08/24 05:21:23;;;;;;;4.30;3.23;;;27.10;42.30;;;;;;5111617;28;20842;-78
2022/08/24 05:23:53;;;;;;;3.57;2.70;;;27.00;42.20;;;;;;5111728;28;20531;-78
2022/08/24 05:26:24;;;;;;;2.60;2.50;;;27.00;42.50;;;;;;5112009;28;20424;-78
2022/08/24 05:28:53;;;;;;;9.17;7.10;;;27.00;42.30;;;;;;5111961;28;20447;-78
2022/08/24 05:31:23;;;;;;;4.93;3.67;;;27.10;42.40;;;;;;5110539;28;20527;-77
2022/08/24 05:33:51;;;;;;;4.37;3.30;;;27.00;42.40;;;;;;5111821;28;20402;-78
2022/08/24 05:36:20;;;;;;;7.97;6.40;;;27.00;42.60;;;;;;5111541;28;20526;-77
2022/08/24 05:38:48;;;;;;;9.87;7.40;;;27.00;42.80;;;;;;5112056;28;20535;-78
2022/08/24 05:41:18;;;;;;;12.00;8.80;;;27.10;42.50;;;;;;5113112;28;20449;-78
2022/08/24 05:43:46;;;;;;;8.07;6.27;;;27.00;42.60;;;;;;5116371;28;20443;-77
2022/08/24 05:46:14;;;;;;;9.13;4.93;;;27.00;42.60;;;;;;5114940;28;20450;-77
2022/08/24 05:48:42;;;;;;;7.10;5.33;;;26.90;42.80;;;;;;5115886;28;20414;-78
2022/08/24 05:51:19;;;;;;;5.23;4.43;;;27.00;43.00;;;;;;5115860;28;20513;-77
2022/08/24 05:53:47;;;;;;;8.63;4.97;;;26.80;43.10;;;;;;5115363;28;20518;-77
2022/08/24 05:56:15;;;;;;;5.63;5.00;;;27.10;43.30;;;;;;5115940;28;20436;-77
2022/08/24 05:58:45;;;;;;;7.93;4.60;;;27.00;43.10;;;;;;5115415;28;20441;-77
2022/08/24 06:01:14;;;;;;;8.10;4.60;;;27.00;42.90;;;;;;5115175;28;20489;-77
2022/08/24 06:03:42;;;;;;;7.13;4.63;;;27.10;43.50;;;;;;5114107;28;20451;-77
2022/08/24 06:06:10;;;;;;;10.00;4.10;;;27.20;43.00;;;;;;5115322;28;20419;-77
2022/08/24 06:08:39;;;;;;;16.07;11.57;;;27.10;43.20;;;;;;5115524;28;20505;-78
2022/08/24 06:11:08;;;;;;;18.33;8.90;;;26.90;43.20;;;;;;5115529;27;20489;-77
2022/08/24 06:13:36;;;;;;;8.63;6.60;;;26.90;43.50;;;;;;5115413;28;20435;-77
2022/08/24 06:16:06;;;;;;;7.57;5.33;;;27.00;44.00;;;;;;5114959;28;20446;-77
2022/08/24 06:18:48;;;;;;;10.47;4.83;;;26.70;43.50;;;;;;5115267;28;20436;-77
2022/08/24 06:21:21;;;;;;;10.50;4.30;;;26.70;44.00;;;;;;5113341;28;20487;-78
2022/08/24 06:23:49;;;;;;;6.73;4.27;;;26.20;44.60;;;;;;5094353;28;20441;-77
2022/08/24 06:29:03;;;;;;;3.83;3.50;;;26.20;45.20;;;;;;5096905;28;20436;-77
2022/08/24 06:31:35;;;;;;;9.00;3.73;;;26.20;44.60;;;;;;5095488;28;20441;-77
2022/08/24 06:34:06;;;;;;;6.53;4.20;;;26.30;46.00;;;;;;5095813;28;20439;-78
2022/08/24 06:36:34;;;;;;;8.50;3.87;;;26.20;45.50;;;;;;5104759;28;20528;-77
2022/08/24 06:39:02;;;;;;;6.60;3.57;;;26.10;45.00;;;;;;5114584;28;20439;-77
2022/08/24 06:41:32;;;;;;;4.60;3.73;;;26.70;44.90;;;;;;5114660;28;20468;-77
2022/08/24 06:44:00;;;;;;;4.63;3.00;;;26.70;44.40;;;;;;5114524;28;20460;-77
2022/08/24 06:46:28;;;;;;;8.20;3.30;;;26.80;44.70;;;;;;5114688;28;20415;-78
2022/08/24 06:49:00;;;;;;;9.33;3.37;;;26.70;44.00;;;;;;5114538;28;20421;-78
2022/08/24 06:51:29;;;;;;;8.80;3.50;;;26.40;44.50;;;;;;5114628;27;20429;-78
2022/08/24 06:53:57;;;;;;;4.30;3.53;;;26.20;45.10;;;;;;5111857;28;20463;-78
2022/08/24 06:56:25;;;;;;;6.23;3.00;;;26.10;45.40;;;;;;5114534;28;20524;-78
2022/08/24 06:58:53;;;;;;;3.20;3.00;;;26.50;45.80;;;;;;5113902;28;20865;-77
2022/08/24 07:01:22;;;;;;;6.20;3.40;;;26.90;44.40;;;;;;5113967;28;20470;-78
2022/08/24 07:03:50;;;;;;;6.33;3.47;;;27.30;44.10;;;;;;5113695;28;21014;-77
2022/08/24 07:06:19;;;;;;;6.20;3.40;;;27.40;43.50;;;;;;5114198;28;20595;-78
2022/08/24 07:08:47;;;;;;;3.20;3.00;;;27.30;43.70;;;;;;5114193;28;20432;-77
2022/08/24 07:11:16;;;;;;;4.30;3.53;;;27.30;44.20;;;;;;5109658;28;20462;-78
2022/08/24 07:13:45;;;;;;;3.50;3.13;;;26.80;44.60;;;;;;5105802;28;20433;-77
2022/08/24 07:16:13;;;;;;;7.90;3.10;;;26.70;44.90;;;;;;5113982;28;20443;-77
2022/08/24 07:18:41;;;;;;;6.27;3.53;;;26.50;45.50;;;;;;5113867;28;20448;-78
2022/08/24 07:21:18;;;;;;;7.50;2.90;;;26.50;45.60;;;;;;5113445;28;20549;-78
2022/08/24 07:23:47;;;;;;;5.87;3.10;;;26.60;45.60;;;;;;5113925;28;20535;-77
2022/08/24 07:26:17;;;;;;;11.83;3.00;;;27.00;44.70;;;;;;5113736;28;20462;-78
2022/08/24 07:28:49;;;;;;;3.10;2.80;;;27.00;44.30;;;;;;5112442;28;20452;-77
2022/08/24 07:31:16;;;;;;;5.00;2.57;;;26.80;44.70;;;;;;5113805;28;20448;-77
2022/08/24 07:33:45;;;;;;;4.00;2.90;;;26.70;45.10;;;;;;5113426;28;20444;-77
2022/08/24 07:36:13;;;;;;;5.23;3.23;;;27.00;46.20;;;;;;5113514;28;20399;-78
2022/08/24 07:38:52;;;;;;;4.03;2.60;;;27.20;44.80;;;;;;5113678;28;20447;-78
2022/08/24 07:41:20;;;;;;;4.33;2.70;;;27.80;44.10;;;;;;5113544;28;21061;-78
2022/08/24 07:44:08;;;;;;;3.10;2.90;;;27.40;44.10;;;;;;5110826;28;20448;-78
2022/08/24 07:46:36;;;;;;;5.80;2.87;;;27.10;44.70;;;;;;5112333;28;20447;-77
2022/08/24 07:49:04;;;;;;;11.53;3.27;;;27.00;44.80;;;;;;5113347;28;20414;-77
2022/08/24 07:51:39;;;;;;;2.83;2.60;;;27.10;45.30;;;;;;5113373;28;20431;-78
2022/08/24 07:54:15;;;;;;;2.77;2.50;;;27.80;44.20;;;;;;5112770;28;20459;-79
2022/08/24 07:56:42;;;;;;;2.90;2.70;;;27.70;43.70;;;;;;5108725;28;20438;-78
2022/08/24 07:59:10;;;;;;;6.33;2.50;;;27.60;43.80;;;;;;5111784;28;20440;-79
2022/08/24 08:01:40;;;;;;;3.17;2.87;;;28.00;43.60;;;;;;5111907;28;20468;-79
2022/08/24 08:04:09;;;;;;;2.73;2.53;;;27.70;43.40;;;;;;5112213;28;20463;-78
2022/08/24 08:06:37;;;;;;;9.17;2.80;;;27.70;43.70;;;;;;5112723;28;20444;-78
2022/08/24 08:09:05;;;;;;;5.30;2.70;;;27.70;43.60;;;;;;5112707;28;20450;-77
2022/08/24 08:11:34;;;;;;;3.93;2.77;;;28.20;43.20;;;;;;5113626;28;20442;-78
2022/08/24 08:14:02;;;;;;;8.83;2.90;;;28.00;42.40;;;;;;5109661;28;20539;-79
2022/08/24 08:16:30;;;;;;;10.87;2.60;;;28.30;42.60;;;;;;5112214;28;20446;-78
2022/08/24 08:18:58;;;;;;;2.63;2.43;;;28.80;42.20;;;;;;5111333;28;20513;-78
2022/08/24 08:24:27;;;;;;;4.60;2.83;;;29.20;41.10;;;;;;5111033;28;20474;-79
2022/08/24 08:26:58;;;;;;;8.30;2.40;;;29.30;41.10;;;;;;5095624;28;20527;-79
2022/08/24 08:29:26;;;;;;;2.60;2.30;;;29.30;41.30;;;;;;5098835;28;20456;-78
2022/08/24 08:31:54;;;;;;;10.03;2.20;;;29.80;40.50;;;;;;5103234;28;20508;-78
2022/08/24 08:34:22;;;;;;;3.90;2.23;;;29.90;40.10;;;;;;5104027;28;20471;-79
2022/08/24 08:36:50;;;;;;;2.90;2.60;;;30.20;39.90;;;;;;5117872;28;20527;-77
2022/08/24 08:39:20;;;;;;;9.40;2.73;;;30.50;39.50;;;;;;5118154;28;20530;-81
2022/08/24 08:42:13;;;;;;;5.67;2.73;;;30.70;40.10;;;;;;5108301;28;20567;-81
2022/08/24 08:44:53;;;;;;;2.83;2.33;;;31.10;38.80;;;;;;5096944;28;20472;-81
2022/08/24 08:47:33;;;;;;;17.70;2.97;;;31.30;38.30;;;;;;5115185;28;20980;-81
2022/08/24 08:50:11;;;;;;;4.67;2.17;;;31.50;38.10;;;;;;5110002;28;20448;-81
2022/08/24 08:53:11;;;;;;;3.80;2.50;;;31.70;37.80;;;;;;5115866;28;20934;-80
2022/08/24 08:55:42;;;;;;;2.60;2.20;;;31.90;37.40;;;;;;5108651;28;20456;-80
2022/08/24 08:58:22;;;;;;;2.40;2.20;;;32.10;37.20;;;;;;5115584;28;20436;-80
2022/08/24 09:00:59;;;;;;;5.23;2.30;;;32.30;36.80;;;;;;5114136;28;20933;-80
2022/08/24 09:03:37;;;;;;;2.90;2.13;;;32.50;36.30;;;;;;5103931;28;20526;-79
2022/08/24 09:06:41;;;;;;;4.60;1.80;;;32.60;36.20;;;;;;5109243;28;20463;-81
2022/08/24 09:09:34;;;;;;;4.83;2.03;;;32.60;36.10;;;;;;5111896;28;20446;-79
2022/08/24 09:12:08;;;;;;;4.27;2.20;;;32.70;36.00;;;;;;5114729;28;20515;-84
2022/08/24 09:15:23;;;;;;;2.00;1.90;;;32.80;36.10;;;;;;5119389;28;20483;-81
2022/08/24 09:18:04;;;;;;;4.73;2.13;;;32.90;35.80;;;;;;5090278;28;20454;-81
2022/08/24 09:20:45;;;;;;;6.90;2.10;;;33.00;35.90;;;;;;5124407;28;20459;-81
2022/08/24 09:23:16;;;;;;;2.97;1.70;;;33.10;35.70;;;;;;5118478;28;20566;-82
2022/08/24 09:25:51;;;;;;;7.97;2.60;;;33.20;35.60;;;;;;5100516;28;20464;-82
2022/08/24 09:28:39;;;;;;;9.70;3.27;;;33.40;35.60;;;;;;5112891;28;20496;-82
2022/08/24 09:31:55;;;;;;;2.93;2.60;;;33.50;35.00;;;;;;5123136;28;20447;-81
2022/08/24 09:34:39;;;;;;;7.60;2.20;;;33.70;34.80;;;;;;5056896;28;20458;-80
2022/08/24 09:37:24;;;;;;;4.37;2.30;;;33.90;34.50;;;;;;5122139;28;20466;-82
2022/08/24 09:40:00;;;;;;;7.20;2.00;;;34.00;34.60;;;;;;5114981;28;20440;-81
2022/08/24 09:43:10;;;;;;;2.27;2.07;;;34.10;34.30;;;;;;5099163;28;20537;-81
2022/08/24 09:46:15;;;;;;;3.17;2.07;;;34.20;34.30;;;;;;5098531;28;20557;-81
2022/08/24 09:49:06;;;;;;;11.17;2.80;;;34.30;33.80;;;;;;5098454;28;20436;-81
2022/08/24 09:52:00;;;;;;;3.77;2.23;;;34.50;33.80;;;;;;5098593;28;20524;-81
2022/08/24 09:54:51;;;;;;;3.20;2.37;;;34.50;33.70;;;;;;5097637;28;20556;-84
2022/08/24 09:57:29;;;;;;;2.20;2.00;;;34.60;33.80;;;;;;5099793;28;20448;-83
2022/08/24 10:00:18;;;;;;;6.87;2.63;;;34.70;33.40;;;;;;5119483;28;20507;-80
2022/08/24 10:03:00;;;;;;;3.20;2.30;;;34.80;33.40;;;;;;5100351;28;20468;-80
2022/08/24 10:05:33;;;;;;;3.70;1.80;;;34.90;33.20;;;;;;5099855;28;20555;-81
2022/08/24 10:08:10;;;;;;;6.23;2.40;;;35.00;33.30;;;;;;5112788;28;20521;-80
2022/08/24 10:10:45;;;;;;;2.90;2.20;;;35.20;32.80;;;;;;5118057;28;20479;-81
2022/08/24 10:13:20;;;;;;;4.53;2.20;;;35.30;32.80;;;;;;5119740;28;20442;-80
2022/08/24 10:15:55;;;;;;;5.30;2.10;;;35.30;32.90;;;;;;5117797;28;20475;-83
2022/08/24 10:18:33;;;;;;;1.97;1.87;;;35.30;32.80;;;;;;5117339;28;20527;-81
2022/08/24 10:21:25;;;;;;;8.33;2.20;;;35.40;32.80;;;;;;5118074;28;20450;-80
2022/08/24 10:24:13;;;;;;;4.60;2.00;;;35.50;32.60;;;;;;5119087;28;20524;-81
2022/08/24 10:26:52;;;;;;;7.93;2.30;;;35.60;32.60;;;;;;5118208;28;20505;-81
2022/08/24 10:29:28;;;;;;;2.53;2.20;;;35.70;32.60;;;;;;5118284;28;20519;-80
2022/08/24 10:32:09;;;;;;;2.27;2.17;;;35.70;32.50;;;;;;5117403;28;20439;-81
2022/08/24 10:34:45;;;;;;;4.80;2.30;;;35.80;32.50;;;;;;5117619;28;20518;-82
2022/08/24 10:37:23;;;;;;;2.40;1.97;;;35.90;32.30;;;;;;5119378;28;20444;-81
2022/08/24 10:40:07;;;;;;;5.70;1.90;;;36.00;32.40;;;;;;5118315;28;20477;-81
2022/08/24 10:46:32;;;;;;;3.57;2.10;;;36.20;32.20;;;;;;5118994;28;20558;-81
2022/08/24 10:49:21;;;;;;;1.97;1.80;;;36.30;32.00;;;;;;5120009;28;20861;-82
2022/08/24 10:52:00;;;;;;;4.33;2.00;;;36.40;31.90;;;;;;5119147;28;20448;-81
2022/08/24 10:54:38;;;;;;;4.03;2.00;;;36.50;31.60;;;;;;5121652;28;20471;-82
2022/08/24 10:57:20;;;;;;;2.80;1.93;;;36.80;31.20;;;;;;5122520;28;20497;-82
2022/08/24 10:59:51;;;;;;;4.60;2.30;;;36.80;31.30;;;;;;5120061;28;20436;-82
2022/08/24 11:02:29;;;;;;;2.57;1.80;;;36.80;31.20;;;;;;5123663;28;20833;-82
2022/08/24 11:05:02;;;;;;;2.70;1.80;;;36.80;31.20;;;;;;5123553;28;20542;-80
2022/08/24 11:07:32;;;;;;;4.83;2.10;;;36.90;31.30;;;;;;5123368;28;20816;-81
2022/08/24 11:10:07;;;;;;;4.63;2.33;;;36.90;31.30;;;;;;5126055;28;20455;-81
2022/08/24 11:12:38;;;;;;;2.70;1.70;;;37.00;31.20;;;;;;5120321;28;20812;-82
2022/08/24 11:15:11;;;;;;;4.30;2.10;;;37.10;31.00;;;;;;5120452;28;20464;-82
2022/08/24 11:17:56;;;;;;;2.20;2.00;;;37.20;30.90;;;;;;5109382;28;20437;-83
2022/08/24 11:20:31;;;;;;;4.80;2.10;;;37.40;30.60;;;;;;5103464;28;20444;-82
2022/08/24 11:23:07;;;;;;;3.97;1.80;;;37.40;30.60;;;;;;5108426;28;20480;-82
2022/08/24 11:25:38;;;;;;;4.20;2.20;;;37.50;30.50;;;;;;5098707;28;20468;-81
2022/08/24 11:28:17;;;;;;;2.60;1.60;;;37.60;30.30;;;;;;5097792;28;20502;-83
2022/08/24 11:30:45;;;;;;;2.17;2.07;;;37.60;30.30;;;;;;5097819;28;20448;-82
2022/08/24 11:33:26;;;;;;;2.20;2.00;;;37.60;30.30;;;;;;5095909;28;20475;-82
2022/08/24 11:35:54;;;;;;;3.30;1.90;;;37.80;30.10;;;;;;5095489;28;20514;-83
2022/08/24 11:38:27;;;;;;;3.27;2.00;;;37.90;29.90;;;;;;5096337;28;20445;-82
2022/08/24 11:41:03;;;;;;;2.10;1.90;;;37.90;29.80;;;;;;5096328;28;20449;-82
2022/08/24 11:43:41;;;;;;;2.13;2.03;;;37.90;29.80;;;;;;5103236;28;20507;-82
2022/08/24 11:46:15;;;;;;;2.50;1.77;;;37.90;30.30;;;;;;5120579;28;20443;-81
2022/08/24 11:48:56;;;;;;;3.43;2.03;;;38.00;29.90;;;;;;5119121;28;20965;-82
2022/08/24 11:51:38;;;;;;;4.07;2.40;;;38.00;30.00;;;;;;5120968;28;20446;-82
2022/08/24 11:54:10;;;;;;;1.80;1.70;;;38.20;29.90;;;;;;5119415;28;20466;-82
2022/08/24 11:56:43;;;;;;;1.97;1.87;;;38.20;29.70;;;;;;5119245;28;20455;-82
2022/08/24 11:59:15;;;;;;;2.37;1.90;;;38.30;29.50;;;;;;5119120;28;20424;-82
2022/08/24 12:01:46;;;;;;;3.00;1.70;;;38.30;29.50;;;;;;5119213;28;20436;-83
2022/08/24 12:04:25;;;;;;;1.40;1.40;;;38.40;29.50;;;;;;5118570;28;20502;-82
2022/08/24 12:06:56;;;;;;;2.97;1.70;;;38.40;29.40;;;;;;5118228;28;20443;-82
2022/08/24 12:09:32;;;;;;;2.40;1.67;;;38.50;29.30;;;;;;5117723;28;20954;-82
2022/08/24 12:12:05;;;;;;;2.10;1.90;;;38.60;29.10;;;;;;5118229;28;20466;-82
2022/08/24 12:14:36;;;;;;;2.40;1.77;;;38.60;29.00;;;;;;5119098;28;20452;-82
2022/08/24 12:17:07;;;;;;;2.20;1.90;;;38.60;29.10;;;;;;5116276;27;20467;-82
2022/08/24 12:19:36;;;;;;;4.87;2.00;;;38.70;29.20;;;;;;5121875;28;20440;-82
2022/08/24 12:22:06;;;;;;;1.73;1.70;;;38.70;29.20;;;;;;5120945;28;20444;-83
2022/08/24 12:24:35;;;;;;;13.60;1.90;;;38.70;29.20;;;;;;5121457;28;20487;-83
2022/08/24 12:27:10;;;;;;;2.00;1.90;;;38.70;29.10;;;;;;5121649;28;20491;-83
2022/08/24 12:29:40;;;;;;;1.83;1.73;;;38.70;29.00;;;;;;5121509;28;20455;-82
2022/08/24 12:32:10;;;;;;;1.80;1.70;;;38.80;28.80;;;;;;5121697;28;20473;-83
2022/08/24 12:34:45;;;;;;;5.90;2.03;;;38.90;28.80;;;;;;5121448;28;20464;-82
2022/08/24 12:37:19;;;;;;;1.83;1.70;;;38.90;28.70;;;;;;5123409;28;20436;-83
2022/08/24 12:39:50;;;;;;;2.53;1.70;;;39.00;29.30;;;;;;5122125;28;20440;-84
2022/08/24 12:42:22;;;;;;;3.43;1.80;;;39.00;28.90;;;;;;5122180;28;20479;-82
2022/08/24 12:44:52;;;;;;;1.70;1.60;;;39.10;28.80;;;;;;5121054;28;20502;-83
2022/08/24 12:47:24;;;;;;;3.13;1.63;;;39.10;28.80;;;;;;5121528;28;20474;-83
2022/08/24 12:49:54;;;;;;;1.70;1.60;;;39.10;28.50;;;;;;5123119;28;20497;-83
2022/08/24 12:52:55;;;;;;;1.60;1.50;;;39.20;28.40;;;;;;5122442;28;20467;-83
2022/08/24 12:55:30;;;;;;;1.60;1.50;;;39.20;28.50;;;;;;5122860;28;20958;-83
2022/08/24 12:58:06;;;;;;;2.53;1.57;;;39.20;28.50;;;;;;5122865;28;20461;-83
2022/08/24 13:00:54;;;;;;;1.93;1.70;;;39.20;28.50;;;;;;5119364;28;20514;-83
2022/08/24 13:03:25;;;;;;;1.83;1.37;;;39.30;28.50;;;;;;5117603;28;20439;-82
2022/08/24 13:05:56;;;;;;;1.80;1.70;;;39.30;28.60;;;;;;5117812;28;20467;-83
2022/08/24 13:08:34;;;;;;;5.03;1.50;;;39.30;28.50;;;;;;5119289;28;20497;-83
2022/08/24 13:11:06;;;;;;;2.50;1.77;;;39.30;28.30;;;;;;5122317;28;20469;-82
2022/08/24 13:13:47;;;;;;;3.50;1.60;;;39.40;28.30;;;;;;5122931;28;20440;-83
2022/08/24 13:16:46;;;;;;;2.53;1.40;;;39.40;28.20;;;;;;5121972;28;20475;-81
2022/08/24 13:19:16;;;;;;;1.63;1.53;;;39.40;28.30;;;;;;5128155;28;20436;-83
2022/08/24 13:21:50;;;;;;;2.90;1.60;;;39.40;28.40;;;;;;5130312;28;20469;-83
2022/08/24 13:24:59;;;;;;;2.50;1.80;;;39.40;28.40;;;;;;5130287;28;20466;-83